Aviation Digital Data Service (ADDS)

Output produced by METARs form (1554 UTC 23 April 2017)
found at http://www.aviationweather.gov/adds/metars/
 
MGGT 231100Z 2312/2412 36008KT 7000 SCT014 TX27/2320Z TN17/2312Z 
     PROB40 
     TEMPO 2212/2215 VRB03KT 5000 BR BKN012 
     BECMG 2315/2317 03008KT SCT018 
     TEMPO 2320/2403 TSRA SCT020TCU SCT025CB 
     BECMG 2403/2405 36010KT 9999 SCT014
       
MGMM 231100Z 2312/2412 00000KT CAVOK TX34/2220Z TN21/2312Z 
     BECMG 2315/2317 33008KT FEW018 
     TEMPO 2320/2401 30008KT SCT020 
     BECMG 2401/2403 30006KT FEW016 SCT090 
     PROB30 
     TEMPO 2408/2412 8000 DZ BKN012
       
MGPB 231100Z 2312/2412 00000KT 9999 SCT016 SCT090 TX32/2320Z TN23/2312Z 
     BECMG 2315/2317 02008KT SCT018 
     PROB40 
     TEMPO 2319/2406 33008KT 8000 TSRA SCT020TCU FEW025CB 
     BECMG 2401/2403 00000KT SCT016
       
MGSJ 231100Z 2312/2412 00000KT 7000 NSC TX34/2320Z TN20/2312Z 
     BECMG 2315/2317 20008KT SCT018 
     TEMPO 2322/2410 24012KT TSRA SCT020TCU SCT025CB 
     BECMG 2401/2403 00000KT SCT016
       
MGGT 231100Z 2312/2412 36008KT 7000 SCT014 TX27/2320Z TN17/2312Z 
     PROB40 
     TEMPO 2212/2215 VRB03KT 5000 BR BKN012 
     BECMG 2315/2317 03008KT SCT018 
     TEMPO 2320/2403 TSRA SCT020TCU SCT025CB 
     BECMG 2403/2405 36010KT 9999 SCT014
       
MGPB 231100Z 2312/2412 00000KT 9999 SCT016 SCT090 TX32/2320Z TN23/2312Z 
     BECMG 2315/2317 02008KT SCT018 
     PROB40 
     TEMPO 2319/2406 33008KT 8000 TSRA SCT020TCU FEW025CB 
     BECMG 2401/2403 00000KT SCT016
       
MGSJ 231100Z 2312/2412 00000KT 7000 NSC TX34/2320Z TN20/2312Z 
     BECMG 2315/2317 20008KT SCT018 
     TEMPO 2322/2410 24012KT TSRA SCT020TCU SCT025CB 
     BECMG 2401/2403 00000KT SCT016